createdAt,value
2023-04-01T00:02:24.427Z,8.88
2023-04-01T00:04:50.923Z,9.08
2023-04-01T00:07:17.430Z,9.11
2023-04-01T00:09:46.072Z,8.88
2023-04-01T00:12:12.592Z,8.95
2023-04-01T00:14:39.455Z,8.95
2023-04-01T00:17:05.990Z,9.09
2023-04-01T00:19:32.711Z,9.15
2023-04-01T00:21:59.562Z,9.31
2023-04-01T00:24:26.058Z,9.35
2023-04-01T00:26:52.996Z,9.40
2023-04-01T00:29:19.527Z,9.35
2023-04-01T00:31:46.124Z,9.11
2023-04-01T00:34:13.550Z,8.91
2023-04-01T00:36:40.137Z,8.92
2023-04-01T00:39:06.710Z,8.87
2023-04-01T00:41:33.398Z,8.74
2023-04-01T00:44:24.693Z,8.54
2023-04-01T00:46:51.492Z,8.39
2023-04-01T00:49:19.957Z,8.48
2023-04-01T00:51:48.335Z,8.50
2023-04-01T00:54:15.513Z,8.47
2023-04-01T00:56:51.751Z,8.59
2023-04-01T00:59:24.994Z,8.68
2023-04-01T01:01:51.720Z,8.80
2023-04-01T01:04:36.610Z,8.92
2023-04-01T01:07:43.399Z,9.19
2023-04-01T01:10:27.703Z,9.38
2023-04-01T01:12:54.147Z,9.37
2023-04-01T01:15:26.004Z,9.43
2023-04-01T01:18:01.782Z,9.53
2023-04-01T01:20:43.804Z,9.55
2023-04-01T01:23:16.318Z,9.50
2023-04-01T01:25:58.116Z,9.14
2023-04-01T01:28:48.556Z,9.16
2023-04-01T01:31:33.705Z,9.00
2023-04-01T01:34:23.688Z,9.07
2023-04-01T01:36:55.069Z,8.85
2023-04-01T01:39:22.186Z,8.54
2023-04-01T01:41:49.122Z,8.63
2023-04-01T01:44:17.164Z,8.44
2023-04-01T01:46:44.918Z,8.23
2023-04-01T01:49:12.772Z,8.52
2023-04-01T01:51:39.304Z,8.65
2023-04-01T01:54:05.846Z,8.56
2023-04-01T01:56:35.987Z,8.81
2023-04-01T01:59:05.090Z,8.75
2023-04-01T02:01:34.282Z,8.80
2023-04-01T02:04:01.140Z,8.83
2023-04-01T02:06:30.368Z,8.81
2023-04-01T02:09:00.351Z,8.94
2023-04-01T02:11:48.908Z,8.94
2023-04-01T02:14:18.314Z,8.93
2023-04-01T02:16:46.191Z,8.88
2023-04-01T02:19:13.410Z,8.95
2023-04-01T02:21:41.006Z,8.99
2023-04-01T02:24:12.496Z,8.95
2023-04-01T02:26:39.236Z,9.21
2023-04-01T02:29:06.645Z,9.35
2023-04-01T02:31:33.315Z,9.20
2023-04-01T02:34:00.061Z,8.98
2023-04-01T02:36:26.747Z,8.95
2023-04-01T02:38:53.393Z,9.06
2023-04-01T02:41:21.030Z,9.01
2023-04-01T02:43:47.558Z,8.94
2023-04-01T02:46:14.119Z,9.00
2023-04-01T02:48:40.686Z,9.20
2023-04-01T02:51:07.525Z,9.25
2023-04-01T02:53:34.024Z,9.28
2023-04-01T02:56:00.578Z,9.25
2023-04-01T02:58:27.101Z,9.46
2023-04-01T03:00:53.691Z,9.69
2023-04-01T03:03:20.268Z,9.50
2023-04-01T03:05:46.860Z,9.60
2023-04-01T03:08:13.431Z,9.41
2023-04-01T03:10:39.970Z,9.57
2023-04-01T03:13:06.528Z,9.21
2023-04-01T03:15:33.396Z,9.15
2023-04-01T03:18:01.927Z,9.03
2023-04-01T03:20:28.554Z,8.97
2023-04-01T03:22:55.046Z,8.93
2023-04-01T03:25:21.618Z,9.01
2023-04-01T03:27:48.130Z,8.78
2023-04-01T03:30:14.730Z,8.73
2023-04-01T03:32:41.421Z,8.77
2023-04-01T03:35:08.373Z,8.68
2023-04-01T03:37:34.875Z,8.61
2023-04-01T03:40:01.600Z,8.60
2023-04-01T03:42:28.095Z,8.51
2023-04-01T03:44:54.586Z,8.50
2023-04-01T03:47:21.098Z,8.41
2023-04-01T03:49:47.597Z,8.22
2023-04-01T03:52:14.112Z,8.16
2023-04-01T03:54:40.608Z,8.13
2023-04-01T03:57:07.261Z,8.20
2023-04-01T03:59:33.870Z,8.20
2023-04-01T04:02:00.388Z,8.18
2023-04-01T04:04:27.749Z,8.22
2023-04-01T04:06:54.899Z,8.07
2023-04-01T04:09:21.528Z,8.05
2023-04-01T04:11:48.060Z,8.12
2023-04-01T04:14:14.548Z,8.43
2023-04-01T04:16:41.243Z,8.38
2023-04-01T04:19:07.850Z,8.59
2023-04-01T04:21:34.492Z,8.55
2023-04-01T04:24:01.661Z,8.67
2023-04-01T04:26:28.300Z,8.46
2023-04-01T04:28:55.385Z,8.49
2023-04-01T04:31:26.877Z,8.59
2023-04-01T04:33:53.920Z,8.84
2023-04-01T04:36:23.083Z,8.72
2023-04-01T04:38:49.636Z,8.65
2023-04-01T04:41:18.161Z,8.56
2023-04-01T04:43:50.751Z,8.39
2023-04-01T04:46:17.811Z,8.20
2023-04-01T04:48:45.147Z,8.32
2023-04-01T04:51:17.907Z,8.16
2023-04-01T04:53:44.510Z,8.14
2023-04-01T04:56:11.138Z,7.99
2023-04-01T04:58:38.953Z,7.94
2023-04-01T05:01:10.257Z,8.05
2023-04-01T05:03:39.560Z,8.01
2023-04-01T05:06:06.986Z,8.00
2023-04-01T05:08:33.887Z,8.01
2023-04-01T05:11:01.332Z,7.75
2023-04-01T05:13:28.647Z,7.88
2023-04-01T05:15:55.311Z,8.12
2023-04-01T05:18:22.310Z,8.19
2023-04-01T05:20:50.676Z,8.14
2023-04-01T05:23:17.230Z,8.04
2023-04-01T05:25:44.376Z,8.17
2023-04-01T05:28:10.951Z,8.47
2023-04-01T05:30:37.559Z,8.44
2023-04-01T05:33:04.236Z,8.29
2023-04-01T05:35:30.955Z,8.15
2023-04-01T05:37:57.571Z,7.88
2023-04-01T05:40:24.164Z,7.88
2023-04-01T05:42:52.171Z,7.79
2023-04-01T05:45:18.678Z,8.06
2023-04-01T05:47:45.323Z,8.16
2023-04-01T05:50:12.052Z,8.01
2023-04-01T05:52:38.959Z,7.98
2023-04-01T05:55:06.250Z,7.81
2023-04-01T05:57:32.876Z,7.67
2023-04-01T05:59:59.380Z,7.82
2023-04-01T06:02:26.012Z,7.82
2023-04-01T06:05:02.555Z,7.95
2023-04-01T06:07:30.026Z,8.24
2023-04-01T06:09:56.561Z,8.35
2023-04-01T06:12:32.423Z,8.34
2023-04-01T06:15:11.823Z,8.28
2023-04-01T06:17:50.504Z,8.48
2023-04-01T06:20:25.706Z,8.54
2023-04-01T06:23:07.486Z,8.54
2023-04-01T06:25:54.265Z,8.75
2023-04-01T06:28:45.163Z,8.97
2023-04-01T06:31:35.048Z,9.02
2023-04-01T06:34:07.639Z,8.90
2023-04-01T06:36:59.062Z,8.86
2023-04-01T06:39:43.890Z,8.84
2023-04-01T06:42:25.651Z,8.77
2023-04-01T06:45:18.752Z,8.47
2023-04-01T06:48:03.993Z,8.54
2023-04-01T06:50:45.297Z,8.51
2023-04-01T06:53:14.391Z,8.20
2023-04-01T06:55:43.848Z,7.91
2023-04-01T06:58:23.366Z,8.04
2023-04-01T07:00:53.107Z,8.24
2023-04-01T07:03:42.933Z,8.30
2023-04-01T07:06:24.004Z,8.27
2023-04-01T07:08:50.702Z,8.27
2023-04-01T07:11:33.025Z,8.36
2023-04-01T07:14:06.808Z,8.45
2023-04-01T07:16:46.346Z,8.36
2023-04-01T07:19:32.640Z,8.30
2023-04-01T07:22:05.293Z,8.47
2023-04-01T07:24:40.794Z,8.61
2023-04-01T07:27:11.402Z,8.51
2023-04-01T07:29:38.114Z,8.54
2023-04-01T07:32:13.790Z,8.45
2023-04-01T07:34:54.076Z,8.66
2023-04-01T07:37:32.844Z,8.43
2023-04-01T07:40:05.067Z,8.55
2023-04-01T07:42:38.533Z,8.62
2023-04-01T07:45:26.007Z,8.63
2023-04-01T07:48:00.807Z,8.54
2023-04-01T07:50:33.960Z,8.65
2023-04-01T07:53:09.110Z,8.90
2023-04-01T07:55:44.759Z,8.83
2023-04-01T07:58:23.371Z,8.91
2023-04-01T08:01:03.429Z,8.89
2023-04-01T08:03:54.564Z,9.04
2023-04-01T08:07:04.661Z,9.21
2023-04-01T08:09:59.948Z,9.43
2023-04-01T08:12:32.604Z,9.34
2023-04-01T08:15:05.221Z,9.30
2023-04-01T08:17:44.857Z,9.41
2023-04-01T08:20:33.392Z,9.52
2023-04-01T08:23:22.732Z,9.60
2023-04-01T08:25:55.180Z,9.51
2023-04-01T08:28:44.377Z,9.52
2023-04-01T08:31:18.676Z,9.64
2023-04-01T08:33:47.430Z,9.83
2023-04-01T08:36:24.217Z,10.11
2023-04-01T08:38:57.006Z,10.10
2023-04-01T08:41:32.552Z,10.04
2023-04-01T08:44:05.064Z,9.96
2023-04-01T08:46:58.041Z,9.52
2023-04-01T08:49:57.669Z,9.57
2023-04-01T08:52:45.859Z,9.48
2023-04-01T08:55:24.309Z,9.46
2023-04-01T08:57:59.837Z,9.54
2023-04-01T09:00:29.392Z,9.83
2023-04-01T09:03:31.020Z,10.18
2023-04-01T09:06:06.612Z,10.37
2023-04-01T09:08:51.378Z,10.63
2023-04-01T09:11:32.178Z,10.74
2023-04-01T09:14:29.556Z,10.74
2023-04-01T09:17:05.214Z,10.64
2023-04-01T09:19:42.597Z,10.69
2023-04-01T09:22:34.781Z,10.91
2023-04-01T09:25:16.477Z,11.01
2023-04-01T09:27:52.267Z,11.13
2023-04-01T09:30:35.604Z,11.10
2023-04-01T09:33:23.152Z,11.00
2023-04-01T09:36:05.387Z,10.73
2023-04-01T09:38:47.451Z,10.78
2023-04-01T09:41:27.390Z,11.05
2023-04-01T09:44:04.000Z,11.03
2023-04-01T09:47:12.053Z,11.00
2023-04-01T09:50:04.760Z,11.03
2023-04-01T09:52:40.012Z,10.68
2023-04-01T09:55:41.999Z,10.48
2023-04-01T09:58:26.695Z,10.65
2023-04-01T10:01:08.441Z,10.98
2023-04-01T10:04:19.746Z,11.24
2023-04-01T10:07:23.650Z,10.98
2023-04-01T10:10:23.943Z,10.64
2023-04-01T10:12:56.326Z,10.53
2023-04-01T10:16:00.156Z,10.75
2023-04-01T10:18:47.531Z,10.90
2023-04-01T10:21:41.745Z,11.03
2023-04-01T10:24:29.834Z,11.22
2023-04-01T10:27:22.611Z,11.48
2023-04-01T10:30:07.389Z,12.11
2023-04-01T10:32:57.279Z,12.39
2023-04-01T10:35:26.941Z,12.29
2023-04-01T10:37:56.516Z,12.84
2023-04-01T10:40:56.107Z,13.19
2023-04-01T10:43:47.549Z,13.36
2023-04-01T10:46:40.514Z,12.96
2023-04-01T10:49:44.508Z,12.90
2023-04-01T10:52:32.405Z,12.84
2023-04-01T10:55:15.263Z,12.58
2023-04-01T10:57:53.907Z,12.88
2023-04-01T11:00:23.042Z,12.81
2023-04-01T11:03:19.556Z,12.40
2023-04-01T11:06:10.908Z,12.91
2023-04-01T11:09:11.532Z,13.20
2023-04-01T11:11:53.050Z,13.39
2023-04-01T11:14:43.535Z,12.98
2023-04-01T11:17:47.747Z,11.87
2023-04-01T11:20:34.296Z,10.59
2023-04-01T11:23:25.586Z,9.58
2023-04-01T11:26:07.265Z,9.50
2023-04-01T11:29:08.654Z,9.58
2023-04-01T11:31:53.933Z,9.43
2023-04-01T11:34:37.003Z,9.69
2023-04-01T11:37:18.097Z,10.22
2023-04-01T11:39:50.646Z,10.94
2023-04-01T11:42:46.612Z,11.38
2023-04-01T11:45:28.305Z,12.21
2023-04-01T11:48:24.846Z,12.62
2023-04-01T11:51:06.610Z,13.21
2023-04-01T11:53:57.337Z,13.28
2023-04-01T11:57:06.296Z,13.26
2023-04-01T11:59:40.596Z,13.00
2023-04-01T12:02:25.266Z,13.35
2023-04-01T12:05:10.384Z,13.13
2023-04-01T12:07:54.759Z,12.74
2023-04-01T12:10:23.855Z,12.32
2023-04-01T12:13:01.540Z,12.53
2023-04-01T12:16:06.017Z,12.95
2023-04-01T12:18:59.372Z,13.27
2023-04-01T12:21:39.873Z,14.08
2023-04-01T12:24:28.280Z,13.59
2023-04-01T12:27:19.462Z,13.93
2023-04-01T12:29:54.892Z,13.94
2023-04-01T12:32:31.741Z,13.93
2023-04-01T12:34:58.174Z,13.67
2023-04-01T12:37:43.044Z,13.85
2023-04-01T12:40:27.774Z,14.38
2023-04-01T12:43:22.107Z,14.23
2023-04-01T12:46:17.025Z,14.38
2023-04-01T12:48:54.799Z,14.27
2023-04-01T12:51:56.929Z,14.24
2023-04-01T12:54:33.694Z,14.32
2023-04-01T12:57:09.329Z,14.41
2023-04-01T13:00:13.297Z,14.04
2023-04-01T13:03:13.614Z,13.75
2023-04-01T13:06:18.556Z,13.65
2023-04-01T13:09:11.727Z,13.41
2023-04-01T13:11:57.183Z,13.45
2023-04-01T13:14:44.952Z,13.61
2023-04-01T13:17:49.070Z,13.51
2023-04-01T13:20:38.969Z,13.23
2023-04-01T13:23:24.143Z,12.63
2023-04-01T13:26:21.286Z,12.77
2023-04-01T13:29:26.850Z,12.93
2023-04-01T13:32:03.151Z,12.83
2023-04-01T13:34:38.652Z,12.68
2023-04-01T13:37:28.166Z,12.75
2023-04-01T13:40:19.210Z,13.06
2023-04-01T13:42:49.451Z,13.30
2023-04-01T13:52:23.848Z,13.79
2023-04-01T14:02:28.319Z,14.09
2023-04-01T14:05:26.488Z,13.77
2023-04-01T14:10:38.825Z,13.49
2023-04-01T14:20:23.999Z,13.29
2023-04-01T14:26:12.668Z,13.20
2023-04-01T14:28:44.730Z,13.05
2023-04-01T14:31:35.966Z,13.11
2023-04-01T14:34:30.014Z,13.06
2023-04-01T14:37:18.321Z,12.65
2023-04-01T14:40:01.303Z,12.50
2023-04-01T14:42:49.523Z,12.50
2023-04-01T14:45:43.402Z,12.82
2023-04-01T14:48:53.834Z,13.02
2023-04-01T15:05:51.159Z,11.61
2023-04-01T15:08:53.086Z,11.37
2023-04-01T15:11:50.418Z,11.07
2023-04-01T15:15:05.051Z,11.33
2023-04-01T15:17:48.042Z,11.39
2023-04-01T15:20:20.634Z,11.24
2023-04-01T15:23:11.004Z,11.42
2023-04-01T15:25:56.196Z,11.61
2023-04-01T15:28:25.774Z,11.98
2023-04-01T15:31:16.764Z,12.18
2023-04-01T15:33:51.494Z,12.72
2023-04-01T15:36:38.873Z,13.00
2023-04-01T15:39:09.260Z,13.17
2023-04-01T15:41:52.255Z,13.19
2023-04-01T15:44:53.914Z,12.94
2023-04-01T15:47:26.798Z,12.61
2023-04-01T15:50:31.980Z,12.28
2023-04-01T15:53:31.555Z,12.34
2023-04-01T15:56:20.167Z,12.39
2023-04-01T15:59:11.638Z,12.43
2023-04-01T16:02:09.079Z,12.41
2023-04-01T16:04:49.273Z,11.96
2023-04-01T16:07:24.669Z,11.61
2023-04-01T16:10:28.639Z,11.10
2023-04-01T16:13:07.019Z,10.97
2023-04-01T16:16:11.682Z,11.01
2023-04-01T16:18:53.342Z,11.33
2023-04-01T16:21:35.067Z,11.39
2023-04-01T16:24:30.947Z,11.29
2023-04-01T16:27:22.134Z,11.58
2023-04-01T16:30:26.485Z,11.77
2023-04-01T16:33:00.462Z,11.66
2023-04-01T16:35:35.345Z,11.53
2023-04-01T16:38:29.951Z,11.23
2023-04-01T16:41:08.518Z,11.19
2023-04-01T16:44:09.234Z,11.31
2023-04-01T16:46:39.357Z,10.97
2023-04-01T16:49:24.089Z,10.61
2023-04-01T16:52:09.424Z,10.68
2023-04-01T16:55:11.840Z,10.56
2023-04-01T16:58:10.649Z,10.61
2023-04-01T17:01:19.913Z,10.48
2023-04-01T17:07:04.641Z,10.54
2023-04-01T17:09:47.041Z,10.75
2023-04-01T17:12:39.811Z,10.68
2023-04-01T17:15:09.701Z,10.51
2023-04-01T17:17:46.853Z,10.31
2023-04-01T17:20:54.795Z,10.14
2023-04-01T17:23:26.133Z,10.06
2023-04-01T17:26:17.257Z,9.91
2023-04-01T17:28:54.247Z,9.98
2023-04-01T17:31:26.709Z,10.00
2023-04-01T17:34:05.104Z,9.87
2023-04-01T17:36:44.911Z,10.05
2023-04-01T17:39:38.886Z,10.13
2023-04-01T17:42:16.694Z,9.86
2023-04-01T17:44:55.531Z,9.91
2023-04-01T17:47:28.836Z,10.09
2023-04-01T17:50:20.356Z,10.09
2023-04-01T17:52:58.532Z,9.68
2023-04-01T17:55:48.520Z,9.41
2023-04-01T17:58:22.000Z,9.19
2023-04-01T18:01:21.183Z,8.81
2023-04-01T18:04:05.736Z,8.85
2023-04-01T18:06:35.024Z,8.92
2023-04-01T18:09:14.840Z,8.91
2023-04-01T18:12:08.070Z,8.93
2023-04-01T18:14:37.460Z,8.93
2023-04-01T18:17:09.747Z,8.88
2023-04-01T18:19:43.704Z,8.94
2023-04-01T18:22:29.152Z,9.22
2023-04-01T18:25:02.817Z,9.33
2023-04-01T18:27:33.182Z,9.14
2023-04-01T18:30:12.937Z,9.35
2023-04-01T18:32:52.949Z,9.17
2023-04-01T18:35:33.399Z,9.41
2023-04-01T18:38:09.134Z,9.37
2023-04-01T18:40:44.432Z,9.37
2023-04-01T18:43:34.357Z,9.53
2023-04-01T18:46:03.401Z,9.31
2023-04-01T18:48:47.310Z,9.25
2023-04-01T18:51:40.980Z,9.08
2023-04-01T18:54:28.383Z,8.96
2023-04-01T18:57:14.210Z,8.99
2023-04-01T18:59:48.154Z,8.87
2023-04-01T19:02:19.251Z,9.01
2023-04-01T19:04:58.010Z,9.03
2023-04-01T19:07:42.073Z,9.04
2023-04-01T19:10:25.434Z,8.79
2023-04-01T19:13:16.145Z,8.90
2023-04-01T19:16:01.774Z,9.13
2023-04-01T19:18:46.550Z,9.13
2023-04-01T19:21:34.596Z,9.04
2023-04-01T19:24:23.152Z,8.99
2023-04-01T19:27:12.846Z,8.88
2023-04-01T19:30:02.371Z,8.75
2023-04-01T19:32:56.382Z,8.36
2023-04-01T19:35:40.947Z,8.25
2023-04-01T19:38:21.181Z,8.11
2023-04-01T19:40:54.322Z,7.89
2023-04-01T19:43:27.180Z,7.87
2023-04-01T19:46:05.948Z,7.68
2023-04-01T19:48:38.790Z,7.65
2023-04-01T19:51:11.670Z,7.79
2023-04-01T19:53:55.801Z,7.82
2023-04-01T19:56:23.934Z,7.56
2023-04-01T19:59:02.862Z,7.69
2023-04-01T20:01:45.965Z,7.76
2023-04-01T20:04:18.969Z,7.74
2023-04-01T20:07:12.890Z,7.91
2023-04-01T20:10:01.135Z,7.93
2023-04-01T20:12:44.783Z,7.76
2023-04-01T20:15:46.752Z,7.80
2023-04-01T20:18:24.237Z,7.88
2023-04-01T20:21:15.403Z,7.76
2023-04-01T20:23:44.581Z,7.69
2023-04-01T20:26:13.050Z,7.94
2023-04-01T20:28:42.604Z,8.02
2023-04-01T20:31:29.147Z,8.26
2023-04-01T20:34:11.236Z,8.32
2023-04-01T20:36:56.498Z,8.27
2023-04-01T20:39:35.194Z,8.16
2023-04-01T20:42:23.040Z,7.87
2023-04-01T20:45:08.279Z,7.94
2023-04-01T20:48:00.803Z,7.90
2023-04-01T20:51:06.678Z,7.91
2023-04-01T20:54:10.624Z,7.79
2023-04-01T20:56:48.990Z,7.91
2023-04-01T20:59:19.318Z,7.89
2023-04-01T21:01:55.902Z,7.66
2023-04-01T21:04:28.495Z,7.45
2023-04-01T21:07:09.851Z,7.59
2023-04-01T21:09:54.915Z,7.50
2023-04-01T21:12:36.712Z,7.45
2023-04-01T21:15:12.612Z,7.36
2023-04-01T21:17:47.932Z,7.44
2023-04-01T21:20:20.198Z,7.20
2023-04-01T21:23:23.921Z,7.31
2023-04-01T21:26:10.395Z,7.65
2023-04-01T21:28:41.366Z,7.62
2023-04-01T21:31:32.743Z,7.81
2023-04-01T21:34:31.089Z,8.04
2023-04-01T21:37:18.569Z,7.87
2023-04-01T21:40:03.346Z,7.95
2023-04-01T21:42:39.923Z,7.90
2023-04-01T21:45:48.164Z,7.88
2023-04-01T21:48:51.878Z,7.87
2023-04-01T21:51:55.425Z,7.77
2023-04-01T21:54:43.391Z,8.04
2023-04-01T21:57:20.052Z,8.16
2023-04-01T22:00:27.379Z,8.35
2023-04-01T22:02:59.933Z,8.58
2023-04-01T22:05:34.731Z,8.62
2023-04-01T22:08:32.550Z,8.58
2023-04-01T22:11:24.437Z,8.22
2023-04-01T22:13:55.989Z,8.10
2023-04-01T22:16:42.629Z,8.05
2023-04-01T22:19:28.116Z,8.01
2023-04-01T22:22:13.741Z,8.11
2023-04-01T22:25:01.491Z,8.23
2023-04-01T22:27:29.646Z,8.32
2023-04-01T22:30:02.128Z,8.55
2023-04-01T22:32:38.321Z,8.60
2023-04-01T22:35:07.579Z,8.80
2023-04-01T22:38:00.132Z,8.71
2023-04-01T22:40:34.814Z,8.83
2023-04-01T22:43:18.448Z,8.54
2023-04-01T22:46:08.762Z,8.50
2023-04-01T22:48:42.199Z,8.06
2023-04-01T22:51:17.336Z,7.80
2023-04-01T22:53:49.828Z,7.67
2023-04-01T22:56:19.628Z,7.80
2023-04-01T22:58:53.158Z,7.81
2023-04-01T23:01:29.014Z,7.72
2023-04-01T23:03:56.934Z,7.59
2023-04-01T23:06:28.814Z,7.53
2023-04-01T23:09:09.969Z,7.59
2023-04-01T23:11:40.713Z,7.72
2023-04-01T23:14:22.631Z,7.89
2023-04-01T23:17:00.628Z,8.12
2023-04-01T23:19:35.964Z,8.04
2023-04-01T23:22:27.801Z,7.92
2023-04-01T23:24:57.640Z,8.06
2023-04-01T23:27:32.386Z,7.92
2023-04-01T23:29:58.962Z,7.82
2023-04-01T23:32:26.270Z,7.82
2023-04-01T23:34:55.344Z,7.59
2023-04-01T23:37:22.312Z,7.64
2023-04-01T23:39:59.248Z,7.52
2023-04-01T23:42:44.022Z,7.80
2023-04-01T23:45:16.464Z,7.95
2023-04-01T23:47:43.145Z,7.76
2023-04-01T23:50:17.795Z,7.78
2023-04-01T23:53:01.619Z,7.89
2023-04-01T23:55:35.216Z,8.02
2023-04-01T23:58:07.011Z,7.69
